createdAt,value
2018-01-08T00:01:09.389Z,5.70
2018-01-08T00:03:37.058Z,5.70
2018-01-08T00:06:04.778Z,5.60
2018-01-08T00:08:33.213Z,5.70
2018-01-08T00:11:00.900Z,5.60
2018-01-08T00:13:28.568Z,5.60
2018-01-08T00:15:56.230Z,5.60
2018-01-08T00:18:23.917Z,5.70
2018-01-08T00:20:51.622Z,5.70
2018-01-08T00:23:19.262Z,5.70
2018-01-08T00:25:46.941Z,5.60
2018-01-08T00:28:14.629Z,5.60
2018-01-08T00:30:42.277Z,5.60
2018-01-08T00:33:09.952Z,5.60
2018-01-08T00:35:37.637Z,5.60
2018-01-08T00:38:05.330Z,5.70
2018-01-08T00:40:33.012Z,5.60
2018-01-08T00:43:00.689Z,5.60
2018-01-08T00:45:28.317Z,5.60
2018-01-08T00:47:55.988Z,5.60
2018-01-08T00:50:23.661Z,5.60
2018-01-08T00:52:51.304Z,5.60
2018-01-08T00:55:18.968Z,5.60
2018-01-08T00:57:46.656Z,5.60
2018-01-08T01:00:14.324Z,5.60
2018-01-08T01:02:42.009Z,5.60
2018-01-08T01:05:09.715Z,5.60
2018-01-08T01:07:37.369Z,5.60
2018-01-08T01:10:05.707Z,5.60
2018-01-08T01:12:33.397Z,5.60
2018-01-08T01:15:01.046Z,5.60
2018-01-08T01:17:28.744Z,5.60
2018-01-08T01:19:56.422Z,5.60
2018-01-08T01:22:24.076Z,5.50
2018-01-08T01:24:51.747Z,5.60
2018-01-08T01:27:19.438Z,5.60
2018-01-08T01:29:47.081Z,5.60
2018-01-08T01:32:15.539Z,5.50
2018-01-08T01:34:43.224Z,5.50
2018-01-08T01:37:11.629Z,5.50
2018-01-08T01:39:40.010Z,5.50
2018-01-08T01:42:07.764Z,5.50
2018-01-08T01:44:35.452Z,5.50
2018-01-08T01:47:03.149Z,5.50
2018-01-08T01:49:31.592Z,5.50
2018-01-08T01:51:59.233Z,5.50
2018-01-08T01:54:27.676Z,5.50
2018-01-08T01:56:56.102Z,5.50
2018-01-08T01:59:23.737Z,5.40
2018-01-08T02:01:51.436Z,5.40
2018-01-08T02:04:19.117Z,5.40
2018-01-08T02:06:46.763Z,5.40
2018-01-08T02:09:14.453Z,5.40
2018-01-08T02:11:42.912Z,5.40
2018-01-08T02:14:11.389Z,5.40
2018-01-08T02:16:39.049Z,5.40
2018-01-08T02:19:06.737Z,5.40
2018-01-08T02:21:35.148Z,5.40
2018-01-08T02:24:03.686Z,5.40
2018-01-08T02:26:32.124Z,5.30
2018-01-08T02:28:59.774Z,5.30
2018-01-08T02:31:27.498Z,5.30
2018-01-08T02:33:55.968Z,5.30
2018-01-08T02:36:24.392Z,5.30
2018-01-08T02:38:52.133Z,5.30
2018-01-08T02:41:19.800Z,5.30
2018-01-08T02:43:47.445Z,5.30
2018-01-08T02:46:15.113Z,5.30
2018-01-08T02:48:42.791Z,5.30
2018-01-08T02:51:10.427Z,5.20
2018-01-08T02:53:38.088Z,5.30
2018-01-08T02:56:05.753Z,5.20
2018-01-08T02:58:33.388Z,5.20
2018-01-08T03:01:01.821Z,5.30
2018-01-08T03:03:29.487Z,5.30
2018-01-08T03:05:57.150Z,5.30
2018-01-08T03:08:24.820Z,5.30
2018-01-08T03:10:52.492Z,5.30
2018-01-08T03:13:20.157Z,5.30
2018-01-08T03:15:47.869Z,5.20
2018-01-08T03:18:16.328Z,5.20
2018-01-08T03:20:43.977Z,5.20
2018-01-08T03:23:12.420Z,5.20
2018-01-08T03:25:40.086Z,5.20
2018-01-08T03:28:07.723Z,5.30
2018-01-08T03:30:35.397Z,5.30
2018-01-08T03:33:03.062Z,5.30
2018-01-08T03:35:30.703Z,5.20
2018-01-08T03:37:58.382Z,5.20
2018-01-08T03:40:26.988Z,5.20
2018-01-08T03:42:55.408Z,5.10
2018-01-08T03:45:23.092Z,5.10
2018-01-08T03:47:50.791Z,5.10
2018-01-08T03:50:19.208Z,5.10
2018-01-08T03:52:46.890Z,5.10
2018-01-08T03:55:14.556Z,5.20
2018-01-08T03:57:42.212Z,5.10
2018-01-08T04:00:09.873Z,5.20
2018-01-08T04:02:37.558Z,5.20
2018-01-08T04:05:05.188Z,5.10
2018-01-08T04:07:32.864Z,5.10
2018-01-08T04:10:00.544Z,5.20
2018-01-08T04:12:28.979Z,5.00
2018-01-08T04:14:56.676Z,5.00
2018-01-08T04:17:24.362Z,5.10
2018-01-08T04:19:52.774Z,5.00
2018-01-08T04:22:20.464Z,5.00
2018-01-08T04:24:48.136Z,5.10
2018-01-08T04:27:15.769Z,5.00
2018-01-08T04:29:43.437Z,5.00
2018-01-08T04:32:11.124Z,5.00
2018-01-08T04:34:39.528Z,5.00
2018-01-08T04:37:07.204Z,5.00
2018-01-08T04:39:34.877Z,5.00
2018-01-08T04:42:02.535Z,5.00
2018-01-08T04:44:30.573Z,5.00
2018-01-08T04:46:58.849Z,5.00
2018-01-08T04:49:28.226Z,4.90
2018-01-08T04:51:55.886Z,4.90
2018-01-08T04:54:23.591Z,5.00
2018-01-08T04:56:51.285Z,4.90
2018-01-08T04:59:18.964Z,5.00
2018-01-08T05:01:46.637Z,5.00
2018-01-08T05:04:15.049Z,5.00
2018-01-08T05:06:42.741Z,5.00
2018-01-08T05:09:10.473Z,5.00
2018-01-08T05:11:38.138Z,5.00
2018-01-08T05:14:05.827Z,5.00
2018-01-08T05:16:33.513Z,5.00
2018-01-08T05:19:01.928Z,4.90
2018-01-08T05:21:29.588Z,4.90
2018-01-08T05:23:57.272Z,4.90
2018-01-08T05:26:24.912Z,4.90
2018-01-08T05:28:52.576Z,4.90
2018-01-08T05:31:20.236Z,4.90
2018-01-08T05:33:48.097Z,4.90
2018-01-08T05:36:15.777Z,4.90
2018-01-08T05:38:43.471Z,4.80
2018-01-08T05:41:11.112Z,4.80
2018-01-08T05:43:38.796Z,4.80
2018-01-08T05:46:07.298Z,4.80
2018-01-08T05:48:35.715Z,4.80
2018-01-08T05:51:03.410Z,4.80
2018-01-08T05:53:31.104Z,4.80
2018-01-08T05:55:58.745Z,4.80
2018-01-08T05:58:27.184Z,4.80
2018-01-08T06:00:54.851Z,4.80
2018-01-08T06:03:22.498Z,4.80
2018-01-08T06:05:50.169Z,4.80
2018-01-08T06:08:17.869Z,4.80
2018-01-08T06:10:46.280Z,4.80
2018-01-08T06:13:13.962Z,4.80
2018-01-08T06:15:41.645Z,4.80
2018-01-08T06:18:09.298Z,4.80
2018-01-08T06:20:37.016Z,4.70
2018-01-08T06:23:04.714Z,4.80
2018-01-08T06:25:32.370Z,4.70
2018-01-08T06:28:00.050Z,4.70
2018-01-08T06:30:27.738Z,4.70
2018-01-08T06:32:56.154Z,4.80
2018-01-08T06:35:23.837Z,4.80
2018-01-08T06:37:51.508Z,4.70
2018-01-08T06:40:19.144Z,4.60
2018-01-08T06:42:46.801Z,4.60
2018-01-08T06:45:14.469Z,4.60
2018-01-08T06:47:42.204Z,4.60
2018-01-08T06:50:09.886Z,4.50
2018-01-08T06:52:37.550Z,4.50
2018-01-08T06:55:06.044Z,4.50
2018-01-08T06:57:33.725Z,4.60
2018-01-08T07:00:01.405Z,4.60
2018-01-08T07:02:29.105Z,4.60
2018-01-08T07:04:56.787Z,4.50
2018-01-08T07:07:24.483Z,4.60
2018-01-08T07:09:52.923Z,4.60
2018-01-08T07:12:20.613Z,4.60
2018-01-08T07:14:48.279Z,4.60
2018-01-08T07:17:16.689Z,4.50
2018-01-08T07:19:44.364Z,4.50
2018-01-08T07:22:12.016Z,4.60
2018-01-08T07:24:39.686Z,4.50
2018-01-08T07:27:07.379Z,4.50
2018-01-08T07:29:35.079Z,4.50
2018-01-08T07:32:02.776Z,4.50
2018-01-08T07:34:30.473Z,4.50
2018-01-08T07:36:58.930Z,4.60
2018-01-08T07:39:26.604Z,4.60
2018-01-08T07:41:54.287Z,4.60
2018-01-08T07:44:22.721Z,4.50
2018-01-08T07:46:50.626Z,4.50
2018-01-08T07:49:19.056Z,4.50
2018-01-08T07:51:46.768Z,4.50
2018-01-08T07:54:15.173Z,4.30
2018-01-08T07:56:42.858Z,4.30
2018-01-08T07:59:10.548Z,4.30
2018-01-08T08:01:38.213Z,4.40
2018-01-08T08:04:05.882Z,4.40
2018-01-08T08:06:34.317Z,4.40
2018-01-08T08:09:01.980Z,4.40
2018-01-08T08:11:29.662Z,4.40
2018-01-08T08:13:57.333Z,4.40
2018-01-08T08:16:25.758Z,4.50
2018-01-08T08:18:53.519Z,4.50
2018-01-08T08:21:21.199Z,4.50
2018-01-08T08:23:48.833Z,4.50
2018-01-08T08:26:17.289Z,4.50
2018-01-08T08:28:45.727Z,4.50
2018-01-08T08:31:13.360Z,4.50
2018-01-08T08:33:41.026Z,4.50
2018-01-08T08:36:08.711Z,4.50
2018-01-08T08:38:36.374Z,4.50
2018-01-08T08:41:04.045Z,4.50
2018-01-08T08:43:31.733Z,4.50
2018-01-08T08:45:59.465Z,4.50
2018-01-08T08:48:27.145Z,4.50
2018-01-08T08:50:55.603Z,4.50
2018-01-08T08:53:23.248Z,4.50
2018-01-08T08:55:50.946Z,4.50
2018-01-08T08:58:19.401Z,4.50
2018-01-08T09:00:47.075Z,4.50
2018-01-08T09:03:14.750Z,4.50
2018-01-08T09:05:43.213Z,4.60
2018-01-08T09:08:11.140Z,4.60
2018-01-08T09:10:38.838Z,4.70
2018-01-08T09:13:06.526Z,4.70
2018-01-08T09:15:34.182Z,4.70
2018-01-08T09:18:02.642Z,4.70
2018-01-08T09:20:31.089Z,4.70
2018-01-08T09:22:58.758Z,4.70
2018-01-08T09:25:26.421Z,4.70
2018-01-08T09:27:54.158Z,4.80
2018-01-08T09:30:21.824Z,4.80
2018-01-08T09:32:49.513Z,4.80
2018-01-08T09:35:17.206Z,4.80
2018-01-08T09:37:44.880Z,4.80
2018-01-08T09:40:12.556Z,4.90
2018-01-08T09:42:40.224Z,4.80
2018-01-08T09:45:07.906Z,4.80
2018-01-08T09:47:35.586Z,4.80
2018-01-08T09:50:04.089Z,4.90
2018-01-08T09:52:31.846Z,4.90
2018-01-08T09:54:59.528Z,4.80
2018-01-08T09:57:27.985Z,4.90
2018-01-08T09:59:55.646Z,4.90
2018-01-08T10:02:22.829Z,4.90
2018-01-08T10:05:02.257Z,4.90
2018-01-08T10:07:41.892Z,4.90
2018-01-08T10:10:21.529Z,5.00
2018-01-08T10:13:01.119Z,5.00
2018-01-08T10:15:40.557Z,5.10
2018-01-08T10:18:20.118Z,5.10
2018-01-08T10:20:48.575Z,5.20
2018-01-08T10:23:16.213Z,5.20
2018-01-08T10:25:43.910Z,5.20
2018-01-08T10:28:12.394Z,5.10
2018-01-08T10:30:40.092Z,5.10
2018-01-08T10:33:07.817Z,5.10
2018-01-08T10:35:36.331Z,5.10
2018-01-08T10:38:04.016Z,5.10
2018-01-08T10:40:31.733Z,5.10
2018-01-08T10:43:05.118Z,5.10
2018-01-08T10:45:39.262Z,5.20
2018-01-08T10:48:12.697Z,5.20
2018-01-08T10:50:46.078Z,5.30
2018-01-08T10:53:14.353Z,5.40
2018-01-08T10:55:42.102Z,5.30
2018-01-08T10:58:09.837Z,5.20
2018-01-08T11:00:37.651Z,5.30
2018-01-08T11:03:10.968Z,5.30
2018-01-08T11:05:39.487Z,5.40
2018-01-08T11:08:07.144Z,5.40
2018-01-08T11:10:35.600Z,5.40
2018-01-08T11:13:04.077Z,5.40
2018-01-08T11:15:32.583Z,5.50
2018-01-08T11:18:00.278Z,5.50
2018-01-08T11:20:27.953Z,5.40
2018-01-08T11:22:55.643Z,5.40
2018-01-08T11:25:24.116Z,5.30
2018-01-08T11:27:52.623Z,5.30
2018-01-08T11:30:20.297Z,5.30
2018-01-08T11:32:47.992Z,5.40
2018-01-08T11:35:15.733Z,5.40
2018-01-08T11:37:43.449Z,5.40
2018-01-08T11:40:11.928Z,5.40
2018-01-08T11:42:39.663Z,5.40
2018-01-08T11:45:07.363Z,5.40
2018-01-08T11:47:35.096Z,5.50
2018-01-08T11:50:03.687Z,5.60
2018-01-08T11:52:31.396Z,5.60
2018-01-08T11:54:59.124Z,5.70
2018-01-08T11:57:26.885Z,5.80
2018-01-08T11:59:54.587Z,5.80
2018-01-08T12:02:22.332Z,5.80
2018-01-08T12:04:50.131Z,5.90
2018-01-08T12:07:17.800Z,5.80
2018-01-08T12:09:45.530Z,5.80
2018-01-08T12:12:13.274Z,5.80
2018-01-08T12:14:40.980Z,5.80
2018-01-08T12:17:08.724Z,5.80
2018-01-08T12:19:36.400Z,5.80
2018-01-08T12:22:04.086Z,5.80
2018-01-08T12:24:32.552Z,5.80
2018-01-08T12:27:00.265Z,5.80
2018-01-08T12:29:27.924Z,6.00
2018-01-08T12:31:55.648Z,5.90
2018-01-08T12:34:24.135Z,5.90
2018-01-08T12:36:52.753Z,5.90
2018-01-08T12:39:20.429Z,5.90
2018-01-08T12:41:48.109Z,6.00
2018-01-08T12:44:15.777Z,5.90
2018-01-08T12:46:43.465Z,6.00
2018-01-08T12:49:11.133Z,6.00
2018-01-08T12:51:38.784Z,5.90
2018-01-08T12:54:07.582Z,5.90
2018-01-08T12:56:35.285Z,6.00
2018-01-08T12:59:02.989Z,6.00
2018-01-08T13:01:31.532Z,6.10
2018-01-08T13:03:59.310Z,6.00
2018-01-08T13:06:27.089Z,6.00
2018-01-08T13:08:55.643Z,6.10
2018-01-08T13:11:23.401Z,6.00
2018-01-08T13:13:51.067Z,6.10
2018-01-08T13:16:18.874Z,6.10
2018-01-08T13:18:46.645Z,6.10
2018-01-08T13:21:14.317Z,6.00
2018-01-08T13:23:42.126Z,5.90
2018-01-08T13:26:09.928Z,6.00
2018-01-08T13:28:37.653Z,6.00
2018-01-08T13:31:05.510Z,6.00
2018-01-08T13:33:33.265Z,6.00
2018-01-08T13:36:00.937Z,6.10
2018-01-08T13:38:28.687Z,6.10
2018-01-08T13:40:56.801Z,6.10
2018-01-08T13:43:25.293Z,6.10
2018-01-08T13:45:53.093Z,6.00
2018-01-08T13:48:20.928Z,6.10
2018-01-08T13:50:48.636Z,6.10
2018-01-08T13:53:16.450Z,6.10
2018-01-08T13:55:44.243Z,6.00
2018-01-08T13:58:11.950Z,5.90
2018-01-08T14:00:40.468Z,5.70
2018-01-08T14:03:08.239Z,5.70
2018-01-08T14:05:36.411Z,5.70
2018-01-08T14:08:04.304Z,5.80
2018-01-08T14:10:32.125Z,5.80
2018-01-08T14:13:00.620Z,5.70
2018-01-08T14:15:28.525Z,5.70
2018-01-08T14:17:56.238Z,5.70
2018-01-08T14:20:24.128Z,5.70
2018-01-08T14:22:51.874Z,5.70
2018-01-08T14:25:19.534Z,5.70
2018-01-08T14:27:47.346Z,5.70
2018-01-08T14:30:15.944Z,5.60
2018-01-08T14:32:43.675Z,5.60
2018-01-08T14:35:11.357Z,5.60
2018-01-08T14:37:39.105Z,5.60
2018-01-08T14:40:06.947Z,5.60
2018-01-08T14:42:34.620Z,5.60
2018-01-08T14:45:02.337Z,5.50
2018-01-08T14:47:30.030Z,5.50
2018-01-08T14:49:57.691Z,5.60
2018-01-08T14:52:25.369Z,5.50
2018-01-08T14:54:53.221Z,5.40
2018-01-08T14:57:20.948Z,5.40
2018-01-08T14:59:48.655Z,5.40
2018-01-08T15:02:16.348Z,5.40
2018-01-08T15:04:44.020Z,5.40
2018-01-08T15:07:11.881Z,5.40
2018-01-08T15:09:40.652Z,5.40
2018-01-08T15:12:09.085Z,5.30
2018-01-08T15:14:36.848Z,5.30
2018-01-08T15:17:04.640Z,5.30
2018-01-08T15:19:33.081Z,5.30
2018-01-08T15:22:00.776Z,5.30
2018-01-08T15:24:28.582Z,5.30
2018-01-08T15:26:56.284Z,5.20
2018-01-08T15:29:24.761Z,5.30
2018-01-08T15:31:52.457Z,5.30
2018-01-08T15:34:20.881Z,5.20
2018-01-08T15:36:48.606Z,5.20
2018-01-08T15:39:16.316Z,5.20
2018-01-08T15:41:44.002Z,5.20
2018-01-08T15:44:11.695Z,5.20
2018-01-08T15:46:39.404Z,5.20
2018-01-08T15:49:07.089Z,5.20
2018-01-08T15:51:35.674Z,5.20
2018-01-08T15:54:04.149Z,5.20
2018-01-08T15:56:32.601Z,5.20
2018-01-08T15:59:00.361Z,5.20
2018-01-08T16:01:28.217Z,5.20
2018-01-08T16:03:55.892Z,5.20
2018-01-08T16:06:23.601Z,5.20
2018-01-08T16:08:51.347Z,5.20
2018-01-08T16:11:19.809Z,5.20
2018-01-08T16:13:47.556Z,5.20
2018-01-08T16:16:16.024Z,5.20
2018-01-08T16:18:45.660Z,5.20
2018-01-08T16:21:15.231Z,5.20
2018-01-08T16:23:43.815Z,5.20
2018-01-08T16:26:11.855Z,5.20
2018-01-08T16:28:39.602Z,5.20
2018-01-08T16:31:08.084Z,5.20
2018-01-08T16:33:35.794Z,5.20
2018-01-08T16:36:03.544Z,5.20
2018-01-08T16:38:31.231Z,5.20
2018-01-08T16:40:58.939Z,5.20
2018-01-08T16:43:26.734Z,5.20
2018-01-08T16:45:54.425Z,5.20
2018-01-08T16:48:23.062Z,5.10
2018-01-08T16:50:50.924Z,5.10
2018-01-08T16:53:25.689Z,5.10
2018-01-08T16:55:53.484Z,5.10
2018-01-08T16:58:22.185Z,5.10
2018-01-08T17:00:49.870Z,5.10
2018-01-08T17:03:17.638Z,5.10
2018-01-08T17:05:45.301Z,5.00
2018-01-08T17:08:13.097Z,5.00
2018-01-08T17:10:40.799Z,4.90
2018-01-08T17:13:08.765Z,4.80
2018-01-08T17:15:36.416Z,4.80
2018-01-08T17:18:04.160Z,4.70
2018-01-08T17:20:32.755Z,4.60
2018-01-08T17:23:00.716Z,4.60
2018-01-08T17:25:29.273Z,4.60
2018-01-08T17:27:57.022Z,4.60
2018-01-08T17:30:24.678Z,4.60
2018-01-08T17:32:52.879Z,4.60
2018-01-08T17:35:21.069Z,4.60
2018-01-08T17:37:49.845Z,4.50
2018-01-08T17:40:18.551Z,4.50
2018-01-08T17:42:46.444Z,4.50
2018-01-08T17:45:14.327Z,4.50
2018-01-08T17:47:42.041Z,4.50
2018-01-08T17:50:10.161Z,4.50
2018-01-08T17:52:37.855Z,4.50
2018-01-08T17:55:06.365Z,4.50
2018-01-08T17:57:34.075Z,4.50
2018-01-08T18:00:01.765Z,4.50
2018-01-08T18:02:30.369Z,4.50
2018-01-08T18:04:58.057Z,4.50
2018-01-08T18:07:25.960Z,4.40
2018-01-08T18:09:54.405Z,4.40
2018-01-08T18:12:22.121Z,4.40
2018-01-08T18:14:49.797Z,4.50
2018-01-08T18:17:17.543Z,4.50
2018-01-08T18:19:45.245Z,4.50
2018-01-08T18:22:13.693Z,4.50
2018-01-08T18:24:41.384Z,4.50
2018-01-08T18:27:09.074Z,4.50
2018-01-08T18:29:36.714Z,4.50
2018-01-08T18:32:04.425Z,4.50
2018-01-08T18:34:32.097Z,4.50
2018-01-08T18:36:59.779Z,4.50
2018-01-08T18:39:27.568Z,4.50
2018-01-08T18:41:55.443Z,4.50
2018-01-08T18:44:24.043Z,4.50
2018-01-08T18:46:52.576Z,4.50
2018-01-08T18:49:20.475Z,4.50
2018-01-08T18:51:48.212Z,4.50
2018-01-08T18:54:15.950Z,4.50
2018-01-08T18:56:43.691Z,4.40
2018-01-08T18:59:12.334Z,4.40
2018-01-08T19:01:40.159Z,4.40
2018-01-08T19:04:08.445Z,4.50
2018-01-08T19:06:36.152Z,4.50
2018-01-08T19:09:04.926Z,4.50
2018-01-08T19:11:33.482Z,4.40
2018-01-08T19:14:02.109Z,4.40
2018-01-08T19:16:29.978Z,4.40
2018-01-08T19:18:59.039Z,4.40
2018-01-08T19:21:26.926Z,4.50
2018-01-08T19:23:54.987Z,4.40
2018-01-08T19:26:23.777Z,4.40
2018-01-08T19:28:52.326Z,4.40
2018-01-08T19:31:20.217Z,4.40
2018-01-08T19:33:48.489Z,4.40
2018-01-08T19:36:17.101Z,4.40
2018-01-08T19:38:45.081Z,4.40
2018-01-08T19:41:12.802Z,4.30
2018-01-08T19:43:41.470Z,4.30
2018-01-08T19:46:09.242Z,4.30
2018-01-08T19:48:36.992Z,4.30
2018-01-08T19:51:04.744Z,4.30
2018-01-08T19:53:32.885Z,4.30
2018-01-08T19:56:00.873Z,4.30
2018-01-08T19:58:28.647Z,4.40
2018-01-08T20:00:56.461Z,4.30
2018-01-08T20:03:24.513Z,4.30
2018-01-08T20:05:53.151Z,4.40
2018-01-08T20:08:20.909Z,4.40
2018-01-08T20:10:48.786Z,4.40
2018-01-08T20:13:16.601Z,4.30
2018-01-08T20:15:44.824Z,4.30
2018-01-08T20:18:12.843Z,4.30
2018-01-08T20:20:41.664Z,4.30
2018-01-08T20:23:09.449Z,4.30
2018-01-08T20:25:37.228Z,4.30
2018-01-08T20:28:05.038Z,4.30
2018-01-08T20:30:32.955Z,4.20
2018-01-08T20:33:00.928Z,4.20
2018-01-08T20:35:28.861Z,4.20
2018-01-08T20:37:56.907Z,4.20
2018-01-08T20:40:24.979Z,4.20
2018-01-08T20:42:52.920Z,4.20
2018-01-08T20:45:21.429Z,4.30
2018-01-08T20:47:49.236Z,4.20
2018-01-08T20:50:17.728Z,4.30
2018-01-08T20:52:45.588Z,4.30
2018-01-08T20:55:13.368Z,4.30
2018-01-08T20:57:41.270Z,4.20
2018-01-08T21:00:09.124Z,4.20
2018-01-08T21:02:37.152Z,4.30
2018-01-08T21:05:05.130Z,4.20
2018-01-08T21:07:33.656Z,4.20
2018-01-08T21:10:01.461Z,4.20
2018-01-08T21:12:29.284Z,4.20
2018-01-08T21:14:57.104Z,4.20
2018-01-08T21:17:25.583Z,4.10
2018-01-08T21:19:54.012Z,4.10
2018-01-08T21:22:21.687Z,4.10
2018-01-08T21:24:49.366Z,4.10
2018-01-08T21:27:17.015Z,4.10
2018-01-08T21:29:44.715Z,4.10
2018-01-08T21:32:12.646Z,4.10
2018-01-08T21:34:41.073Z,4.10
2018-01-08T21:37:08.746Z,4.10
2018-01-08T21:39:36.425Z,4.10
2018-01-08T21:42:04.084Z,4.10
2018-01-08T21:44:31.836Z,4.10
2018-01-08T21:46:59.842Z,4.10
2018-01-08T21:49:27.854Z,4.10
2018-01-08T21:51:55.711Z,4.10
2018-01-08T21:54:23.596Z,4.10
2018-01-08T21:56:51.366Z,4.10
2018-01-08T21:59:19.245Z,4.10
2018-01-08T22:01:47.033Z,4.10
2018-01-08T22:04:15.617Z,4.00
2018-01-08T22:06:43.612Z,3.90
2018-01-08T22:09:11.400Z,3.90
2018-01-08T22:11:39.301Z,3.90
2018-01-08T22:14:08.243Z,3.90
2018-01-08T22:16:36.304Z,3.90
2018-01-08T22:19:04.506Z,3.90
2018-01-08T22:21:32.425Z,3.90
2018-01-08T22:24:00.381Z,3.80
2018-01-08T22:26:28.893Z,3.80
2018-01-08T22:28:56.626Z,3.80
2018-01-08T22:31:25.129Z,3.80
2018-01-08T22:33:52.864Z,3.70
2018-01-08T22:36:21.406Z,3.90
2018-01-08T22:38:49.221Z,3.80
2018-01-08T22:41:16.990Z,3.80
2018-01-08T22:43:44.747Z,3.90
2018-01-08T22:46:13.318Z,3.70
2018-01-08T22:48:41.325Z,3.70
2018-01-08T22:51:09.155Z,3.70
2018-01-08T22:53:36.966Z,3.70
2018-01-08T22:56:05.067Z,3.60
2018-01-08T22:58:33.028Z,3.70
2018-01-08T23:01:00.801Z,3.60
2018-01-08T23:03:28.439Z,3.60
2018-01-08T23:05:56.113Z,3.50
2018-01-08T23:08:23.787Z,3.60
2018-01-08T23:10:52.214Z,3.50
2018-01-08T23:13:19.884Z,3.50
2018-01-08T23:15:47.571Z,3.50
2018-01-08T23:18:15.224Z,3.50
2018-01-08T23:20:42.894Z,3.50
2018-01-08T23:23:10.642Z,3.50
2018-01-08T23:25:38.316Z,3.50
2018-01-08T23:28:06.009Z,3.50
2018-01-08T23:30:33.700Z,3.50
2018-01-08T23:33:01.351Z,3.50
2018-01-08T23:35:29.028Z,3.50
2018-01-08T23:37:56.713Z,3.50
2018-01-08T23:40:24.358Z,3.40
2018-01-08T23:42:52.033Z,3.50
2018-01-08T23:45:19.696Z,3.50
2018-01-08T23:47:47.372Z,3.50
2018-01-08T23:50:15.045Z,3.50
2018-01-08T23:52:43.510Z,3.30
2018-01-08T23:55:11.161Z,3.30
2018-01-08T23:57:38.841Z,3.30
